Terminal Aerodrome Forecast
Issued by NWS St Louis, MO

Home | Current Version | Previous Version | Text Only | Print | Product List | Glossary On
Versions: 1 2 3 4 5 6 7 8 9
385
FTUS43 KLSX 211134
TAFCOU
TAF
KCOU 211134Z 2112/2212 04005KT P6SM VCSH OVC120
     FM211500 05009KT P6SM OVC250
     FM220000 05008KT P6SM -SHRA OVC060
     FM220600 07013KT 6SM -SHRA OVC030=

USA.gov is the U.S. government's official web portal to all federal, state and local government web resources and services.